Time;durP1;ratioP1;P1;durP2;ratioP2;P2;SDS_P1;SDS_P2;PMS_P1;PMS_P2;Temp;Humidity;BMP_temperature;BMP_pressure;BME280_temperature;BME280_humidity;BME280_pressure;Samples;Min_cycle;Max_cycle;Signal;HPM_P1;HPM_P2
2022/01/30 00:00:08;;;;;;;13.33;3.07;;;6.20;71.70;;;;;;5032621;28;20288;-87
2022/01/30 00:02:35;;;;;;;12.83;2.70;;;6.20;99.90;;;;;;5032658;28;20252;-89
2022/01/30 00:05:03;;;;;;;13.80;2.40;;;6.20;34.10;;;;;;5032760;28;20190;-89
2022/01/30 00:07:30;;;;;;;9.43;2.87;;;6.20;1.00;;;;;;5032577;28;20194;-89
2022/01/30 00:09:58;;;;;;;10.67;2.53;;;6.20;1.00;;;;;;5032515;28;20260;-88
2022/01/30 00:12:35;;;;;;;10.93;2.73;;;6.20;1.00;;;;;;5032745;28;20247;-89
2022/01/30 00:15:02;;;;;;;11.17;3.03;;;6.20;1.00;;;;;;5032490;28;20197;-89
2022/01/30 00:17:36;;;;;;;13.47;3.03;;;6.20;1.00;;;;;;5032341;28;20560;-88
2022/01/30 00:20:07;;;;;;;12.63;2.60;;;6.20;1.00;;;;;;5032458;28;20205;-88
2022/01/30 00:22:45;;;;;;;10.83;2.00;;;6.20;1.00;;;;;;5032048;28;20225;-89
2022/01/30 00:25:19;;;;;;;10.90;2.10;;;6.20;1.00;;;;;;5032287;28;20199;-89
2022/01/30 00:27:50;;;;;;;10.57;2.07;;;6.20;1.00;;;;;;5031889;28;20194;-88
2022/01/30 00:30:18;;;;;;;11.63;2.47;;;6.20;99.90;;;;;;5031995;28;20190;-88
2022/01/30 00:32:46;;;;;;;9.07;2.77;;;6.20;1.00;;;;;;5031753;28;20309;-87
2022/01/30 00:35:13;;;;;;;10.17;2.50;;;6.20;1.00;;;;;;5032117;28;20193;-88
2022/01/30 00:37:43;;;;;;;9.93;2.20;;;6.20;1.00;;;;;;5032139;28;20241;-89
2022/01/30 00:40:12;;;;;;;10.77;2.33;;;6.20;1.00;;;;;;5020336;28;20210;-88
2022/01/30 00:42:39;;;;;;;11.23;2.53;;;6.20;1.00;;;;;;5014281;28;20268;-88
2022/01/30 00:45:08;;;;;;;14.80;2.50;;;6.10;1.00;;;;;;5015585;28;20190;-87
2022/01/30 00:47:35;;;;;;;11.40;2.70;;;6.10;1.00;;;;;;5015809;28;20198;-87
2022/01/30 00:50:02;;;;;;;11.57;2.23;;;6.00;96.20;;;;;;5015459;28;20244;-87
2022/01/30 00:52:29;;;;;;;12.77;2.30;;;5.90;99.90;;;;;;5015599;28;20210;-87
2022/01/30 00:54:56;;;;;;;13.13;3.03;;;5.90;99.90;;;;;;5016038;28;20252;-87
2022/01/30 00:57:24;;;;;;;13.90;2.40;;;5.90;99.90;;;;;;5017224;28;20592;-88
2022/01/30 00:59:51;;;;;;;11.33;2.00;;;5.90;99.90;;;;;;5035347;28;20189;-87
2022/01/30 01:02:18;;;;;;;20.63;4.10;;;5.90;99.90;;;;;;5035031;28;20658;-87
2022/01/30 01:04:46;;;;;;;14.23;3.13;;;5.80;1.00;;;;;;5035181;28;20243;-88
2022/01/30 01:07:18;;;;;;;16.97;3.33;;;5.80;1.00;;;;;;5035071;28;20585;-88
2022/01/30 01:09:53;;;;;;;15.50;2.80;;;5.60;99.90;;;;;;5035095;28;20190;-88
2022/01/30 01:21:00;;;;;;;15.83;2.50;;;5.00;1.00;;;;;;5034873;28;20235;-87
2022/01/30 01:23:29;;;;;;;10.93;2.87;;;5.00;1.00;;;;;;5034906;28;20276;-87
2022/01/30 01:25:58;;;;;;;12.27;2.63;;;4.90;99.90;;;;;;5034844;28;20229;-86
2022/01/30 01:28:26;;;;;;;12.37;2.57;;;4.90;99.90;;;;;;5034769;28;20677;-87
2022/01/30 01:30:54;;;;;;;15.03;2.67;;;4.80;99.90;;;;;;5034854;28;20204;-87
2022/01/30 01:33:24;;;;;;;19.40;3.17;;;4.80;99.90;;;;;;5034202;28;20217;-87
2022/01/30 01:35:51;;;;;;;10.37;2.43;;;4.80;99.90;;;;;;5034534;28;20187;-87
2022/01/30 01:38:19;;;;;;;12.47;2.37;;;4.70;99.90;;;;;;5034657;28;20197;-87
2022/01/30 01:40:51;;;;;;;9.67;2.63;;;4.80;99.90;;;;;;5034577;28;20217;-87
2022/01/30 01:43:18;;;;;;;14.77;2.40;;;4.90;99.90;;;;;;5034762;28;20537;-87
2022/01/30 01:45:47;;;;;;;11.73;2.40;;;4.90;99.90;;;;;;5034636;28;20209;-88
2022/01/30 01:48:16;;;;;;;12.60;2.50;;;4.90;99.90;;;;;;5034406;28;20243;-87
2022/01/30 01:50:53;;;;;;;8.03;2.27;;;4.90;1.00;;;;;;5034128;28;20224;-87
2022/01/30 01:53:22;;;;;;;13.47;2.30;;;4.90;1.00;;;;;;5033927;28;20276;-88
2022/01/30 01:55:50;;;;;;;12.50;2.87;;;4.80;1.00;;;;;;5034041;28;20201;-87
2022/01/30 01:58:17;;;;;;;11.80;2.80;;;4.80;1.00;;;;;;5034224;28;20247;-87
2022/01/30 02:00:44;;;;;;;10.17;2.50;;;4.80;1.00;;;;;;5033885;28;20251;-87
2022/01/30 02:03:11;;;;;;;12.87;2.70;;;4.80;1.00;;;;;;5033664;28;20201;-86
2022/01/30 02:05:41;;;;;;;12.60;1.90;;;4.80;1.00;;;;;;5034167;28;20206;-87
2022/01/30 02:08:31;;;;;;;8.57;2.20;;;4.80;1.00;;;;;;5033845;28;20186;-87
2022/01/30 02:11:02;;;;;;;16.43;2.70;;;4.90;99.90;;;;;;5034186;28;20222;-87
2022/01/30 02:25:02;;;;;;;10.07;2.23;;;5.10;1.00;;;;;;5033608;28;20308;-86
2022/01/30 02:27:34;;;;;;;12.37;2.30;;;5.10;1.00;;;;;;5033862;28;20269;-88
2022/01/30 02:30:01;;;;;;;11.30;2.60;;;5.10;99.90;;;;;;5033364;28;20642;-86
2022/01/30 02:32:28;;;;;;;11.33;2.53;;;5.10;1.00;;;;;;5033221;28;20247;-86
2022/01/30 02:34:55;;;;;;;12.27;1.97;;;5.10;1.00;;;;;;5033816;28;20229;-87
2022/01/30 02:37:22;;;;;;;12.33;2.33;;;5.20;1.00;;;;;;5033447;28;20196;-88
2022/01/30 02:39:51;;;;;;;10.40;1.70;;;5.30;1.00;;;;;;5033491;28;20193;-87
2022/01/30 02:42:21;;;;;;;13.40;2.17;;;5.30;1.00;;;;;;5033211;28;20217;-87
2022/01/30 02:44:53;;;;;;;11.27;2.23;;;5.30;1.00;;;;;;5033398;28;20216;-87
2022/01/30 02:47:37;;;;;;;8.70;2.10;;;5.30;1.00;;;;;;5033030;28;20192;-86
2022/01/30 02:50:16;;;;;;;11.40;2.20;;;5.30;1.00;;;;;;5032864;28;20275;-86
2022/01/30 02:52:50;;;;;;;8.90;1.63;;;5.30;1.00;;;;;;5032889;28;20177;-86
2022/01/30 02:55:18;;;;;;;10.97;2.10;;;5.30;1.00;;;;;;5033117;28;20185;-86
2022/01/30 02:57:45;;;;;;;9.87;2.40;;;5.30;1.00;;;;;;5032778;28;20547;-86
2022/01/30 03:00:13;;;;;;;8.97;1.87;;;5.30;1.00;;;;;;5032801;28;20658;-86
2022/01/30 03:02:40;;;;;;;8.20;1.97;;;5.30;1.00;;;;;;5032715;28;20264;-86
2022/01/30 03:05:08;;;;;;;8.53;1.97;;;5.30;1.00;;;;;;5032421;28;20267;-86
2022/01/30 03:07:35;;;;;;;11.50;2.10;;;5.40;1.00;;;;;;5032789;28;20271;-86
2022/01/30 03:10:04;;;;;;;12.17;2.57;;;5.50;99.90;;;;;;5033057;28;20251;-85
2022/01/30 03:12:32;;;;;;;11.97;2.30;;;5.50;99.90;;;;;;5032347;28;20653;-87
2022/01/30 03:14:59;;;;;;;7.30;2.27;;;5.50;1.00;;;;;;5032705;28;20213;-86
2022/01/30 03:17:26;;;;;;;8.20;2.80;;;5.50;99.90;;;;;;5033166;28;20522;-86
2022/01/30 03:19:53;;;;;;;10.87;2.10;;;5.50;1.00;;;;;;5032267;28;20654;-86
2022/01/30 03:22:20;;;;;;;8.33;1.50;;;5.40;99.90;;;;;;5032504;28;20553;-86
2022/01/30 03:24:47;;;;;;;10.87;1.77;;;5.50;1.00;;;;;;5032365;28;20541;-86
2022/01/30 03:27:14;;;;;;;9.83;2.33;;;5.40;1.00;;;;;;5032321;28;20721;-85
2022/01/30 03:29:49;;;;;;;12.70;2.70;;;5.40;1.00;;;;;;5032794;28;20279;-85
2022/01/30 03:32:16;;;;;;;8.97;1.80;;;5.40;1.00;;;;;;5032621;28;20280;-85
2022/01/30 03:34:44;;;;;;;14.83;2.77;;;5.40;1.00;;;;;;5032183;28;20237;-85
2022/01/30 03:37:10;;;;;;;10.77;2.43;;;5.40;1.00;;;;;;5032434;28;20189;-86
2022/01/30 03:39:38;;;;;;;8.63;2.07;;;5.40;1.00;;;;;;5032580;28;20247;-86
2022/01/30 03:42:05;;;;;;;8.53;2.13;;;5.40;1.00;;;;;;5032617;28;20197;-86
2022/01/30 03:44:32;;;;;;;9.83;1.90;;;5.40;99.90;;;;;;5032648;28;20255;-86
2022/01/30 03:47:01;;;;;;;11.77;1.80;;;5.50;99.90;;;;;;5032652;28;20185;-85
2022/01/30 03:49:28;;;;;;;11.87;2.43;;;5.50;99.90;;;;;;5032792;28;20663;-85
2022/01/30 03:51:55;;;;;;;10.03;2.63;;;5.50;99.90;;;;;;5032492;28;20201;-85
2022/01/30 03:54:22;;;;;;;13.17;2.13;;;5.40;1.00;;;;;;5032085;28;20217;-86
2022/01/30 03:56:49;;;;;;;18.07;2.87;;;5.30;1.00;;;;;;5032242;28;20197;-86
2022/01/30 03:59:16;;;;;;;12.60;2.23;;;5.20;99.90;;;;;;5032309;28;20197;-85
2022/01/30 04:01:43;;;;;;;5.37;1.60;;;5.10;1.00;;;;;;5032428;28;20201;-86
2022/01/30 04:04:11;;;;;;;12.57;2.70;;;4.90;34.70;;;;;;5032228;28;20199;-85
2022/01/30 04:06:38;;;;;;;10.77;2.47;;;4.90;99.90;;;;;;5032015;28;20188;-87
2022/01/30 04:09:06;;;;;;;15.63;2.23;;;4.70;1.00;;;;;;5031982;28;20700;-85
2022/01/30 04:11:33;;;;;;;12.87;2.30;;;4.70;1.00;;;;;;5032150;28;20248;-85
2022/01/30 04:14:00;;;;;;;12.80;2.47;;;4.60;1.00;;;;;;5032117;28;20204;-85
2022/01/30 04:16:28;;;;;;;11.00;2.33;;;4.60;98.80;;;;;;5032195;28;20197;-86
2022/01/30 04:18:56;;;;;;;13.63;2.17;;;4.60;99.90;;;;;;5035858;28;20723;-85
2022/01/30 04:21:25;;;;;;;11.50;2.20;;;4.60;99.90;;;;;;5035660;28;20214;-86
2022/01/30 04:23:52;;;;;;;10.37;1.93;;;4.50;99.90;;;;;;5035035;28;20717;-85
2022/01/30 04:26:19;;;;;;;14.67;2.30;;;4.60;99.90;;;;;;5036017;28;20242;-85
2022/01/30 04:28:46;;;;;;;15.03;2.77;;;4.60;99.90;;;;;;5035587;28;20557;-86
2022/01/30 04:31:14;;;;;;;15.80;2.60;;;4.60;99.90;;;;;;5035499;28;20196;-85
2022/01/30 04:33:41;;;;;;;13.17;2.63;;;4.60;99.90;;;;;;5035301;28;20255;-85
2022/01/30 04:36:13;;;;;;;13.87;2.57;;;4.60;99.90;;;;;;5036010;28;20599;-85
2022/01/30 04:38:55;;;;;;;15.33;3.20;;;4.60;99.90;;;;;;5035727;28;20549;-85
2022/01/30 04:41:47;;;;;;;11.93;2.10;;;4.60;99.90;;;;;;5035753;28;20266;-85
2022/01/30 04:52:48;;;;;;;15.30;3.13;;;4.40;1.00;;;;;;5034998;28;20196;-86
2022/01/30 04:55:58;;;;;;;13.27;2.93;;;4.40;1.00;;;;;;5035337;28;20220;-86
2022/01/30 04:58:20;;;;;;;15.17;2.80;;;4.30;95.40;;;;;;5034934;28;20196;-86
2022/01/30 05:03:44;;;;;;;18.73;2.30;;;4.30;99.90;;;;;;5029502;28;20529;-86
2022/01/30 05:06:15;;;;;;;17.30;3.37;;;4.20;1.00;;;;;;5035300;28;20186;-86
2022/01/30 05:08:42;;;;;;;12.57;2.40;;;4.20;1.00;;;;;;5035297;28;20189;-87
2022/01/30 05:11:11;;;;;;;15.87;2.60;;;4.20;1.00;;;;;;5035109;28;20239;-87
2022/01/30 05:13:43;;;;;;;16.83;3.17;;;4.10;1.00;;;;;;5034746;28;20217;-86
2022/01/30 05:16:12;;;;;;;10.17;3.13;;;4.10;5.40;;;;;;5034740;28;20626;-87
2022/01/30 05:18:39;;;;;;;14.70;3.03;;;4.10;36.50;;;;;;5034630;28;20672;-86
2022/01/30 09:31:46;;;;;;;18.43;4.97;;;6.00;64.90;;;;;;5064772;28;1399076;-85
2022/01/30 09:34:13;;;;;;;25.27;7.07;;;5.90;99.90;;;;;;5109669;28;20244;-84
2022/01/30 10:44:48;;;;;;;26.33;7.53;;;5.80;99.90;;;;;;5130534;27;20601;-84
2022/01/30 10:47:22;;;;;;;27.57;6.70;;;7.40;99.90;;;;;;5130126;27;20586;-84
2022/01/30 10:49:49;;;;;;;23.27;6.83;;;7.50;1.00;;;;;;5130978;27;20224;-84
2022/01/30 10:52:16;;;;;;;18.33;5.27;;;7.60;1.00;;;;;;5131110;27;20193;-85
2022/01/30 10:54:49;;;;;;;19.43;4.80;;;7.60;1.00;;;;;;5130290;27;20190;-83
2022/01/30 10:57:16;;;;;;;11.90;3.77;;;7.60;1.00;;;;;;5130744;27;20181;-83
2022/01/30 10:59:52;;;;;;;20.30;4.13;;;7.60;1.00;;;;;;5130455;27;20215;-83
2022/01/30 11:02:23;;;;;;;13.70;3.90;;;7.50;99.90;;;;;;5130749;27;20211;-83
2022/01/30 11:04:50;;;;;;;16.23;3.73;;;7.50;99.90;;;;;;5130790;27;20181;-83
2022/01/30 11:07:20;;;;;;;21.67;8.77;;;7.50;1.00;;;;;;5130050;27;20181;-83
2022/01/30 11:10:00;;;;;;;24.07;6.13;;;7.40;1.00;;;;;;5130588;27;20192;-83
2022/01/30 11:12:39;;;;;;;20.97;6.80;;;7.50;1.00;;;;;;5129586;27;20677;-82
2022/01/30 11:15:20;;;;;;;19.77;4.07;;;7.50;1.00;;;;;;5130046;27;20186;-82
2022/01/30 11:17:49;;;;;;;20.50;6.60;;;7.50;1.00;;;;;;5130248;27;20585;-82
2022/01/30 11:20:17;;;;;;;19.53;5.43;;;7.60;99.90;;;;;;5129697;27;20196;-82
2022/01/30 11:22:47;;;;;;;21.77;6.07;;;7.60;99.90;;;;;;5129640;27;20680;-81
2022/01/30 11:25:14;;;;;;;;;;;7.60;1.00;;;;;;5130280;27;20196;-82
2022/01/30 11:27:41;;;;;;;;;;;7.60;1.00;;;;;;5129663;27;20376;-81
2022/01/30 11:30:10;;;;;;;;;;;7.60;99.90;;;;;;5130264;27;20034;-82
2022/01/30 11:32:37;;;;;;;;;;;7.70;1.00;;;;;;5130217;27;19981;-82
2022/01/30 11:35:07;;;;;;;12.00;3.37;;;7.70;99.90;;;;;;5129087;27;20200;-81
2022/01/30 11:37:39;;;;;;;12.83;4.33;;;7.70;99.90;;;;;;5129508;27;20198;-82
2022/01/30 11:40:14;;;;;;;13.77;3.40;;;7.70;1.00;;;;;;5129744;27;20182;-82
2022/01/30 11:42:44;;;;;;;17.53;4.73;;;7.60;1.00;;;;;;5128762;27;20236;-82
2022/01/30 11:45:17;;;;;;;15.77;3.00;;;7.60;99.90;;;;;;5117027;27;20722;-82
2022/01/30 11:47:49;;;;;;;17.97;3.70;;;7.60;99.90;;;;;;5115023;28;20193;-81
2022/01/30 11:50:24;;;;;;;12.70;3.50;;;7.60;99.90;;;;;;5114859;27;20190;-81
2022/01/30 11:53:03;;;;;;;13.07;3.43;;;7.70;99.90;;;;;;5115442;28;20267;-81
2022/01/30 11:55:50;;;;;;;13.37;4.00;;;7.60;1.00;;;;;;5115162;28;20284;-81
2022/01/30 11:58:43;;;;;;;15.53;3.37;;;7.60;99.90;;;;;;5114025;28;20281;-81
2022/01/30 12:01:38;;;;;;;17.30;3.90;;;7.70;1.00;;;;;;5108080;28;20211;-81
2022/01/30 12:04:09;;;;;;;13.50;4.03;;;7.60;27.50;;;;;;5112200;28;20204;-83
2022/01/30 12:06:38;;;;;;;;;;;7.70;1.00;;;;;;5112164;28;20243;-81
2022/01/30 12:09:29;;;;;;;17.73;3.10;;;7.70;1.00;;;;;;5109637;28;19981;-81
2022/01/30 12:12:04;;;;;;;13.10;3.70;;;7.70;1.00;;;;;;5114562;28;20644;-81
2022/01/30 12:14:52;;;;;;;;;;;7.80;1.00;;;;;;5114762;28;19927;-81
2022/01/30 12:17:59;;;;;;;14.03;4.20;;;7.80;1.00;;;;;;5103041;28;20049;-81
2022/01/30 12:20:29;;;;;;;11.70;2.93;;;7.80;1.00;;;;;;5094937;28;20269;-82
2022/01/30 12:22:57;;;;;;;13.93;4.40;;;7.80;1.00;;;;;;5094626;28;20268;-81
2022/01/30 12:25:35;;;;;;;17.37;3.93;;;7.80;1.00;;;;;;5094423;28;20202;-83
2022/01/30 12:28:08;;;;;;;15.23;3.90;;;7.80;1.00;;;;;;5114100;28;20239;-83
2022/01/30 12:30:46;;;;;;;18.30;4.57;;;7.90;1.00;;;;;;5115164;28;20212;-81
2022/01/30 12:33:46;;;;;;;16.73;4.57;;;7.90;1.00;;;;;;5115044;28;20193;-82
2022/01/30 12:36:21;;;;;;;17.00;5.13;;;7.90;1.00;;;;;;5114321;28;20243;-82
2022/01/30 12:38:58;;;;;;;19.77;5.90;;;7.90;1.00;;;;;;5114596;28;20627;-82
2022/01/30 12:41:26;;;;;;;9.87;3.70;;;7.90;1.00;;;;;;5106838;28;20219;-82
2022/01/30 12:43:56;;;;;;;19.13;5.50;;;7.80;1.00;;;;;;5093702;28;20231;-83
2022/01/30 12:46:25;;;;;;;13.00;3.83;;;7.90;1.00;;;;;;5094799;28;20198;-82
2022/01/30 12:49:05;;;;;;;17.87;4.03;;;7.90;1.00;;;;;;5094527;28;20198;-81
2022/01/30 12:51:32;;;;;;;19.77;4.37;;;7.80;1.00;;;;;;5094288;28;20186;-82
2022/01/30 12:54:01;;;;;;;16.50;3.90;;;7.80;99.90;;;;;;5096227;28;20198;-84
2022/01/30 12:56:28;;;;;;;16.67;4.17;;;7.80;54.70;;;;;;5098418;28;20596;-82
2022/01/30 12:58:59;;;;;;;15.53;3.77;;;7.80;49.70;;;;;;5114252;28;20247;-82
2022/01/30 13:01:27;;;;;;;16.87;4.03;;;7.70;1.00;;;;;;5114174;28;20711;-82
2022/01/30 13:04:05;;;;;;;11.23;3.03;;;7.70;1.00;;;;;;5114317;28;20221;-82
2022/01/30 13:06:34;;;;;;;18.90;3.57;;;7.70;1.00;;;;;;5113697;28;20190;-83
2022/01/30 13:09:03;;;;;;;15.23;3.40;;;7.60;1.00;;;;;;5114277;28;20244;-83
2022/01/30 13:11:31;;;;;;;12.57;3.07;;;7.60;1.00;;;;;;5113848;28;20687;-84
2022/01/30 13:14:00;;;;;;;13.97;3.60;;;7.60;87.00;;;;;;5113903;28;20722;-82
2022/01/30 13:16:33;;;;;;;15.80;3.83;;;7.60;63.20;;;;;;5113732;28;20189;-85
2022/01/30 13:19:01;;;;;;;15.87;3.67;;;7.70;1.00;;;;;;5113816;28;20635;-83
2022/01/30 13:21:33;;;;;;;8.43;2.53;;;7.60;1.00;;;;;;5113725;28;20193;-83
2022/01/30 13:24:03;;;;;;;15.13;3.23;;;7.50;1.00;;;;;;5113700;28;20677;-84
2022/01/30 13:26:32;;;;;;;15.80;3.83;;;7.50;1.00;;;;;;5113404;28;20186;-83
2022/01/30 13:29:00;;;;;;;14.10;3.20;;;7.50;1.00;;;;;;5113967;28;20245;-84
2022/01/30 13:31:27;;;;;;;10.73;3.17;;;7.40;1.00;;;;;;5113458;28;20197;-82
2022/01/30 13:34:13;;;;;;;19.27;4.17;;;7.30;1.00;;;;;;5113376;28;20241;-82
2022/01/30 13:36:40;;;;;;;12.63;3.13;;;7.20;1.00;;;;;;5113422;28;20198;-82
2022/01/30 13:39:15;;;;;;;13.37;2.90;;;7.10;99.90;;;;;;5113766;28;20200;-84
2022/01/30 13:41:49;;;;;;;14.27;3.00;;;7.10;1.00;;;;;;5113742;28;20233;-82
2022/01/30 13:44:24;;;;;;;11.07;2.57;;;7.10;1.00;;;;;;5112716;28;20256;-83
2022/01/30 13:47:02;;;;;;;8.60;2.30;;;7.10;1.00;;;;;;5113479;28;20185;-83
2022/01/30 13:49:29;;;;;;;13.70;2.83;;;7.10;1.00;;;;;;5113673;28;20187;-84
2022/01/30 13:52:09;;;;;;;7.87;1.77;;;7.00;1.00;;;;;;5113454;28;20193;-84
2022/01/30 13:54:38;;;;;;;11.47;2.97;;;7.00;1.00;;;;;;5112918;28;20530;-84
2022/01/30 13:57:07;;;;;;;12.83;2.10;;;7.00;99.90;;;;;;5113058;28;20700;-84
2022/01/30 13:59:34;;;;;;;10.50;2.33;;;6.90;99.90;;;;;;5113254;28;20196;-85
2022/01/30 14:02:03;;;;;;;10.77;2.60;;;6.80;99.90;;;;;;5112307;28;20199;-84
2022/01/30 14:04:31;;;;;;;10.50;3.23;;;6.80;99.90;;;;;;5112787;28;20222;-83
2022/01/30 14:07:00;;;;;;;8.07;2.00;;;6.80;1.00;;;;;;5112653;28;20248;-84
2022/01/30 14:09:36;;;;;;;11.43;2.20;;;6.70;1.00;;;;;;5112923;28;20191;-81
2022/01/30 14:12:07;;;;;;;9.60;2.53;;;6.70;1.00;;;;;;5112640;28;20265;-82
2022/01/30 14:14:38;;;;;;;12.67;2.77;;;6.60;99.90;;;;;;5113167;28;20190;-85
2022/01/30 14:17:07;;;;;;;9.00;2.90;;;6.60;99.90;;;;;;5113262;28;20190;-83
2022/01/30 14:19:41;;;;;;;10.13;2.50;;;6.60;99.90;;;;;;5112071;28;20223;-83
2022/01/30 14:22:18;;;;;;;13.87;2.17;;;6.60;99.90;;;;;;5111331;28;20660;-84
2022/01/30 14:24:50;;;;;;;7.90;1.87;;;6.60;99.90;;;;;;5111744;28;20212;-83
2022/01/30 14:27:20;;;;;;;10.17;2.30;;;6.50;99.90;;;;;;5111973;28;20195;-84
2022/01/30 14:29:53;;;;;;;9.70;2.40;;;6.50;99.90;;;;;;5112665;28;20231;-82
2022/01/30 14:32:21;;;;;;;9.87;2.10;;;6.50;99.90;;;;;;5112961;28;20176;-82
2022/01/30 14:34:50;;;;;;;8.57;2.40;;;6.40;99.90;;;;;;5112886;28;20286;-82
2022/01/30 14:37:18;;;;;;;10.53;2.20;;;6.40;99.90;;;;;;5112553;28;20725;-82
2022/01/30 14:39:53;;;;;;;14.77;4.33;;;6.40;99.90;;;;;;5112807;28;20188;-82
2022/01/30 14:42:21;;;;;;;11.00;3.00;;;6.40;99.90;;;;;;5091907;28;20229;-84
2022/01/30 14:44:48;;;;;;;10.13;2.40;;;6.30;99.90;;;;;;5092494;28;20212;-83
2022/01/30 14:47:16;;;;;;;9.73;2.83;;;6.30;99.90;;;;;;5092082;28;20266;-82
2022/01/30 14:49:45;;;;;;;12.20;3.87;;;6.30;1.00;;;;;;5092131;28;20715;-82
2022/01/30 14:52:13;;;;;;;13.87;3.67;;;6.30;1.00;;;;;;5112381;28;20198;-82
2022/01/30 14:54:40;;;;;;;10.93;3.07;;;6.30;1.00;;;;;;5112693;28;20205;-82
2022/01/30 14:57:08;;;;;;;16.87;4.13;;;6.30;1.00;;;;;;5112748;28;20195;-82
2022/01/30 14:59:36;;;;;;;10.73;3.03;;;6.20;1.00;;;;;;5112656;28;20191;-82
2022/01/30 15:02:04;;;;;;;15.60;4.40;;;6.20;99.90;;;;;;5112018;28;20195;-81
2022/01/30 15:04:33;;;;;;;13.63;3.60;;;6.10;99.90;;;;;;5112278;28;20237;-82
2022/01/30 15:07:00;;;;;;;15.87;3.37;;;6.00;99.90;;;;;;5112658;28;20197;-82
2022/01/30 15:09:28;;;;;;;14.43;3.80;;;5.90;99.90;;;;;;5112106;28;20717;-82
2022/01/30 15:11:55;;;;;;;15.60;4.03;;;5.90;99.90;;;;;;5112868;28;20191;-83
2022/01/30 15:14:25;;;;;;;11.40;3.00;;;5.80;1.00;;;;;;5112520;28;20195;-83
2022/01/30 15:16:54;;;;;;;15.17;2.80;;;5.80;1.00;;;;;;5112518;28;20179;-82
2022/01/30 15:19:24;;;;;;;15.00;3.33;;;5.70;1.00;;;;;;5100107;28;20230;-82
2022/01/30 15:21:51;;;;;;;16.50;2.93;;;5.70;1.00;;;;;;5116174;28;20183;-81
2022/01/30 15:24:18;;;;;;;13.67;3.57;;;5.60;1.00;;;;;;5116249;28;20218;-83
2022/01/30 15:26:45;;;;;;;12.30;3.10;;;5.60;37.90;;;;;;5115647;28;20607;-81
2022/01/30 15:29:13;;;;;;;14.97;2.73;;;5.50;1.00;;;;;;5115897;28;20193;-81
2022/01/30 15:31:40;;;;;;;17.47;3.47;;;5.50;1.00;;;;;;5115795;28;20281;-82
2022/01/30 15:34:09;;;;;;;13.90;4.00;;;5.40;46.00;;;;;;5105478;28;20194;-82
2022/01/30 15:36:37;;;;;;;13.17;3.37;;;5.40;72.00;;;;;;5114955;28;20644;-83
2022/01/30 15:39:05;;;;;;;13.83;3.63;;;5.40;99.90;;;;;;5114845;28;20607;-82
2022/01/30 15:41:33;;;;;;;15.10;3.57;;;5.40;99.90;;;;;;5096331;28;20192;-83
2022/01/30 15:44:02;;;;;;;18.13;3.93;;;5.40;99.90;;;;;;5094507;28;20219;-84
2022/01/30 15:49:16;;;;;;;16.03;3.60;;;5.40;99.90;;;;;;5095310;28;20180;-80
2022/01/30 15:51:45;;;;;;;19.20;3.60;;;5.40;99.90;;;;;;5095029;28;20565;-81
2022/01/30 15:54:13;;;;;;;12.50;3.70;;;5.40;99.90;;;;;;5100193;28;21050;-81
2022/01/30 15:56:41;;;;;;;21.17;4.33;;;5.30;99.90;;;;;;5115525;28;20197;-80
2022/01/30 15:59:09;;;;;;;13.17;4.20;;;5.30;99.90;;;;;;5115673;28;20198;-80
2022/01/30 16:01:37;;;;;;;22.60;4.63;;;5.30;99.90;;;;;;5115320;28;20190;-80
2022/01/30 16:04:04;;;;;;;20.00;4.57;;;5.30;55.50;;;;;;5114963;28;20221;-80
2022/01/30 16:06:35;;;;;;;17.27;3.37;;;5.30;99.90;;;;;;5115161;28;20710;-80
2022/01/30 16:09:07;;;;;;;20.27;6.80;;;5.40;99.90;;;;;;5115375;28;20270;-80
2022/01/30 16:12:11;;;;;;;15.00;3.33;;;5.30;58.70;;;;;;5115032;28;20190;-80
2022/01/30 16:17:20;;;;;;;25.40;9.13;;;5.20;1.00;;;;;;5114318;28;20193;-79
2022/01/30 16:19:47;;;;;;;20.57;5.73;;;5.10;10.00;;;;;;5114731;28;20195;-80
2022/01/30 16:22:16;;;;;;;15.73;5.53;;;5.10;37.90;;;;;;5114076;28;20620;-80
2022/01/30 16:24:43;;;;;;;20.83;4.90;;;5.00;99.90;;;;;;5114124;28;20207;-82
2022/01/30 16:27:10;;;;;;;17.97;4.20;;;5.00;99.90;;;;;;5114569;28;20607;-81
2022/01/30 16:29:37;;;;;;;18.60;3.97;;;5.00;99.90;;;;;;5113239;28;20644;-82
2022/01/30 16:32:05;;;;;;;18.83;4.30;;;5.00;99.90;;;;;;5114984;28;20203;-82
2022/01/30 16:34:33;;;;;;;19.67;4.73;;;4.90;99.90;;;;;;5114907;28;20197;-83
2022/01/30 16:37:00;;;;;;;22.73;5.33;;;4.80;1.00;;;;;;5114929;28;20195;-83
2022/01/30 16:39:28;;;;;;;21.47;4.67;;;4.80;1.00;;;;;;5114704;28;20216;-80
2022/01/30 16:41:55;;;;;;;22.70;5.63;;;4.70;1.00;;;;;;5115027;28;20246;-81
2022/01/30 16:44:25;;;;;;;26.00;6.03;;;4.70;1.00;;;;;;5114450;28;20740;-82
2022/01/30 16:47:15;;;;;;;28.03;7.87;;;4.60;1.00;;;;;;5114395;28;20191;-82
2022/01/30 16:49:43;;;;;;;21.77;4.53;;;4.50;1.00;;;;;;5114248;28;20185;-83
2022/01/30 16:52:10;;;;;;;28.50;5.77;;;4.50;52.20;;;;;;5114053;28;20190;-83
2022/01/30 16:54:38;;;;;;;21.50;4.50;;;4.40;99.90;;;;;;5114394;28;20528;-84
2022/01/30 16:57:17;;;;;;;21.07;4.87;;;4.40;99.90;;;;;;5118642;28;20181;-84
2022/01/30 17:03:07;;;;;;;17.77;4.47;;;4.30;99.90;;;;;;5137879;27;20199;-86
2022/01/30 17:06:01;;;;;;;22.70;4.17;;;4.30;99.90;;;;;;5138890;27;20224;-83
2022/01/30 17:14:53;;;;;;;21.53;4.83;;;4.10;99.90;;;;;;5134185;27;20186;-84
2022/01/30 17:23:29;;;;;;;26.40;5.00;;;4.00;1.00;;;;;;5137416;28;20178;-83
2022/01/30 17:26:31;;;;;;;21.40;4.83;;;4.00;1.00;;;;;;5138579;28;20207;-86
2022/01/30 17:32:10;;;;;;;28.50;5.37;;;3.90;1.00;;;;;;5076799;28;20257;-85
2022/01/30 17:38:15;;;;;;;20.20;5.57;;;3.90;1.00;;;;;;5116997;28;20199;-85
2022/01/30 17:40:58;;;;;;;30.73;5.83;;;3.90;1.00;;;;;;5117808;28;20180;-85
2022/01/30 17:43:33;;;;;;;23.77;4.80;;;3.90;1.00;;;;;;5117257;28;20241;-83
2022/01/30 17:46:16;;;;;;;26.63;5.97;;;3.90;1.00;;;;;;5117718;28;20228;-85
2022/01/30 17:51:48;;;;;;;22.37;4.17;;;3.80;1.00;;;;;;5027446;28;20194;-83
2022/01/30 17:54:16;;;;;;;31.83;5.43;;;3.80;1.00;;;;;;5036504;28;20674;-83
2022/01/30 17:56:44;;;;;;;22.87;4.57;;;3.70;1.00;;;;;;5037326;28;20197;-80
2022/01/30 17:59:11;;;;;;;18.07;4.80;;;3.70;1.00;;;;;;5029212;28;20562;-81
2022/01/30 18:01:39;;;;;;;19.13;4.07;;;3.70;1.00;;;;;;5028952;28;20187;-81
2022/01/30 18:04:07;;;;;;;22.57;5.07;;;3.70;1.00;;;;;;5028842;28;20670;-81
2022/01/30 18:06:34;;;;;;;22.60;4.77;;;3.70;1.00;;;;;;5028792;28;20223;-80
2022/01/30 18:09:02;;;;;;;23.93;4.37;;;3.60;1.00;;;;;;5028916;28;20557;-81
2022/01/30 18:11:32;;;;;;;20.47;4.83;;;3.60;1.00;;;;;;5028905;28;20240;-81
2022/01/30 18:14:00;;;;;;;19.27;4.37;;;3.60;1.00;;;;;;5028998;28;20189;-81
2022/01/30 18:16:28;;;;;;;22.40;4.80;;;3.50;1.00;;;;;;5028441;28;20285;-81
2022/01/30 18:18:57;;;;;;;21.97;5.00;;;3.50;1.00;;;;;;5032610;28;20201;-81
2022/01/30 18:21:24;;;;;;;18.20;4.73;;;3.50;1.00;;;;;;5030126;28;20189;-82
2022/01/30 18:23:51;;;;;;;21.50;4.80;;;3.40;1.00;;;;;;5070595;28;20184;-81
2022/01/30 18:26:19;;;;;;;25.00;6.33;;;3.40;1.00;;;;;;5070604;28;20215;-81
2022/01/30 18:28:46;;;;;;;23.10;5.30;;;3.40;48.60;;;;;;5071179;28;20657;-81
2022/01/30 18:31:13;;;;;;;23.37;6.77;;;3.40;85.80;;;;;;5092271;28;20195;-81
2022/01/30 18:33:42;;;;;;;19.80;5.60;;;3.30;96.90;;;;;;5092770;28;20195;-81
2022/01/30 18:36:15;;;;;;;20.17;4.03;;;3.30;99.90;;;;;;5092179;28;20191;-80
2022/01/30 18:38:51;;;;;;;25.43;4.30;;;3.30;99.90;;;;;;5091842;28;20195;-81
2022/01/30 18:41:18;;;;;;;24.83;4.80;;;3.30;99.90;;;;;;5092534;28;20647;-80
2022/01/30 18:43:49;;;;;;;25.73;5.00;;;3.30;99.90;;;;;;5092605;28;20230;-81
2022/01/30 18:46:16;;;;;;;21.57;5.83;;;3.20;99.90;;;;;;5092622;28;20272;-81
2022/01/30 18:48:44;;;;;;;22.97;4.47;;;3.20;99.90;;;;;;5092445;28;20183;-81
2022/01/30 18:51:13;;;;;;;27.00;5.83;;;3.20;99.90;;;;;;5092511;28;20282;-81
2022/01/30 18:53:40;;;;;;;25.27;4.37;;;3.20;99.90;;;;;;5092585;28;20194;-81
2022/01/30 18:56:08;;;;;;;19.93;4.67;;;3.10;99.90;;;;;;5096159;28;20254;-81
2022/01/30 18:58:35;;;;;;;17.00;4.87;;;3.10;99.90;;;;;;5096171;28;20189;-81
2022/01/30 19:01:02;;;;;;;23.13;5.13;;;3.10;1.00;;;;;;5102168;28;20253;-81
2022/01/30 19:03:29;;;;;;;18.13;5.23;;;3.10;1.00;;;;;;5101304;28;20572;-80
2022/01/30 19:05:56;;;;;;;28.03;5.23;;;3.10;1.00;;;;;;5099855;28;20215;-81
2022/01/30 19:08:25;;;;;;;19.50;4.30;;;3.10;1.00;;;;;;5102648;28;20191;-82
2022/01/30 19:10:52;;;;;;;22.73;4.60;;;3.10;1.00;;;;;;5097567;28;20188;-82
2022/01/30 19:13:20;;;;;;;21.73;3.97;;;3.00;1.00;;;;;;5099684;28;20286;-80
2022/01/30 19:15:48;;;;;;;23.73;4.60;;;3.00;1.00;;;;;;5097885;28;20244;-81
2022/01/30 19:18:15;;;;;;;20.23;3.90;;;3.00;1.00;;;;;;5097947;28;20606;-81
2022/01/30 19:20:43;;;;;;;24.53;6.33;;;2.90;1.00;;;;;;5100075;28;20671;-82
2022/01/30 19:23:10;;;;;;;24.50;4.83;;;2.90;1.00;;;;;;5097350;28;20197;-81
2022/01/30 19:25:39;;;;;;;26.23;6.37;;;2.90;1.00;;;;;;5099469;28;20273;-81
2022/01/30 19:28:08;;;;;;;25.97;7.40;;;2.90;1.00;;;;;;5097443;28;20226;-81
2022/01/30 19:30:37;;;;;;;34.73;10.03;;;2.80;1.00;;;;;;5098900;28;20201;-82
2022/01/30 19:33:05;;;;;;;26.70;8.70;;;2.80;1.00;;;;;;5098312;28;20203;-81